sensor_id;sensor_type;location;lat;lon;timestamp;pressure;altitude;pressure_sealevel;temperature;humidity
64675;BME280;51090;51.512;11.332;2023-07-13T00:01:52;99141.53;;;18.41;62.29
64675;BME280;51090;51.512;11.332;2023-07-13T00:04:19;99140.22;;;18.44;62.58
64675;BME280;51090;51.512;11.332;2023-07-13T00:06:46;99138.34;;;18.44;62.26
64675;BME280;51090;51.512;11.332;2023-07-13T00:09:16;99139.91;;;18.40;62.73
64675;BME280;51090;51.512;11.332;2023-07-13T00:11:44;99143.91;;;18.38;63.21
64675;BME280;51090;51.512;11.332;2023-07-13T00:14:11;99134.69;;;18.34;64.02
64675;BME280;51090;51.512;11.332;2023-07-13T00:16:39;99130.63;;;18.31;63.80
64675;BME280;51090;51.512;11.332;2023-07-13T00:19:06;99129.91;;;18.36;64.04
64675;BME280;51090;51.512;11.332;2023-07-13T00:21:32;99125.41;;;18.41;64.21
64675;BME280;51090;51.512;11.332;2023-07-13T00:23:58;99120.94;;;18.47;63.84
64675;BME280;51090;51.512;11.332;2023-07-13T00:26:25;99128.53;;;18.50;63.56
64675;BME280;51090;51.512;11.332;2023-07-13T00:28:51;99123.06;;;18.45;63.80
64675;BME280;51090;51.512;11.332;2023-07-13T00:31:17;99121.13;;;18.40;64.59
64675;BME280;51090;51.512;11.332;2023-07-13T00:33:44;99126.13;;;18.37;64.17
64675;BME280;51090;51.512;11.332;2023-07-13T00:36:10;99137.84;;;18.31;64.14
64675;BME280;51090;51.512;11.332;2023-07-13T00:38:37;99136.72;;;18.26;64.24
64675;BME280;51090;51.512;11.332;2023-07-13T00:41:04;99133.88;;;18.16;66.29
64675;BME280;51090;51.512;11.332;2023-07-13T00:43:30;99139.78;;;18.18;66.42
64675;BME280;51090;51.512;11.332;2023-07-13T00:46:14;99145.25;;;18.23;66.42
64675;BME280;51090;51.512;11.332;2023-07-13T00:48:41;99146.22;;;18.17;67.18
64675;BME280;51090;51.512;11.332;2023-07-13T00:51:10;99143.78;;;18.16;66.64
64675;BME280;51090;51.512;11.332;2023-07-13T00:53:36;99179.41;;;18.11;66.86
64675;BME280;51090;51.512;11.332;2023-07-13T00:56:03;99153.28;;;18.06;67.16
64675;BME280;51090;51.512;11.332;2023-07-13T00:58:30;99202.06;;;18.03;67.34
64675;BME280;51090;51.512;11.332;2023-07-13T01:00:56;99198.63;;;18.08;67.79
64675;BME280;51090;51.512;11.332;2023-07-13T01:03:22;99200.19;;;18.04;68.63
64675;BME280;51090;51.512;11.332;2023-07-13T01:12:33;99207.06;;;18.00;67.86
64675;BME280;51090;51.512;11.332;2023-07-13T01:15:01;99198.44;;;17.98;68.33
64675;BME280;51090;51.512;11.332;2023-07-13T01:17:28;99196.16;;;17.90;68.24
64675;BME280;51090;51.512;11.332;2023-07-13T01:19:55;99207.25;;;17.81;68.82
64675;BME280;51090;51.512;11.332;2023-07-13T01:22:21;99201.19;;;17.74;69.07
64675;BME280;51090;51.512;11.332;2023-07-13T01:24:52;99201.78;;;17.64;69.25
64675;BME280;51090;51.512;11.332;2023-07-13T01:27:23;99195.28;;;17.60;70.85
64675;BME280;51090;51.512;11.332;2023-07-13T01:29:52;99206.38;;;17.52;69.26
64675;BME280;51090;51.512;11.332;2023-07-13T01:32:21;99202.19;;;17.45;72.30
64675;BME280;51090;51.512;11.332;2023-07-13T01:34:50;99198.22;;;17.35;71.76
64675;BME280;51090;51.512;11.332;2023-07-13T01:37:20;99211.16;;;17.27;72.57
64675;BME280;51090;51.512;11.332;2023-07-13T01:39:46;99197.75;;;17.15;73.88
64675;BME280;51090;51.512;11.332;2023-07-13T01:42:13;99199.63;;;17.03;75.35
64675;BME280;51090;51.512;11.332;2023-07-13T01:44:39;99222.22;;;16.95;75.02
64675;BME280;51090;51.512;11.332;2023-07-13T01:47:05;99206.88;;;16.90;74.70
64675;BME280;51090;51.512;11.332;2023-07-13T01:49:31;99206.88;;;16.90;74.46
64675;BME280;51090;51.512;11.332;2023-07-13T01:51:58;99211.97;;;16.92;75.41
64675;BME280;51090;51.512;11.332;2023-07-13T01:54:24;99216.38;;;16.86;74.79
64675;BME280;51090;51.512;11.332;2023-07-13T01:56:50;99209.28;;;16.92;74.68
64675;BME280;51090;51.512;11.332;2023-07-13T01:59:16;99199.84;;;16.89;75.47
64675;BME280;51090;51.512;11.332;2023-07-13T02:01:42;99194.16;;;16.86;74.24
64675;BME280;51090;51.512;11.332;2023-07-13T02:04:08;99199.38;;;16.81;75.64
64675;BME280;51090;51.512;11.332;2023-07-13T02:06:34;99194.63;;;16.83;74.74
64675;BME280;51090;51.512;11.332;2023-07-13T02:09:00;99185.19;;;16.80;75.57
64675;BME280;51090;51.512;11.332;2023-07-13T02:11:26;99194.34;;;16.72;74.86
64675;BME280;51090;51.512;11.332;2023-07-13T02:13:59;99192.94;;;16.70;74.47
64675;BME280;51090;51.512;11.332;2023-07-13T02:16:25;99206.34;;;16.70;74.63
64675;BME280;51090;51.512;11.332;2023-07-13T02:18:51;99200.97;;;16.70;74.56
64675;BME280;51090;51.512;11.332;2023-07-13T02:21:18;99200.97;;;16.70;74.86
64675;BME280;51090;51.512;11.332;2023-07-13T02:23:44;99197.47;;;16.69;74.35
64675;BME280;51090;51.512;11.332;2023-07-13T02:26:10;99206.34;;;16.70;74.38
64675;BME280;51090;51.512;11.332;2023-07-13T02:28:36;99201.41;;;16.67;74.18
64675;BME280;51090;51.512;11.332;2023-07-13T02:31:11;99196.19;;;16.60;78.13
64675;BME280;51090;51.512;11.332;2023-07-13T02:33:37;99196.06;;;16.55;74.39
64675;BME280;51090;51.512;11.332;2023-07-13T02:36:03;99196.59;;;16.45;75.96
64675;BME280;51090;51.512;11.332;2023-07-13T02:38:32;99196.22;;;16.30;77.74
64675;BME280;51090;51.512;11.332;2023-07-13T02:40:59;99201.28;;;16.20;77.36
64675;BME280;51090;51.512;11.332;2023-07-13T02:43:25;99195.59;;;16.16;76.78
64675;BME280;51090;51.512;11.332;2023-07-13T02:45:51;99197.09;;;16.12;76.16
64675;BME280;51090;51.512;11.332;2023-07-13T02:48:17;99195.22;;;16.13;76.16
64675;BME280;51090;51.512;11.332;2023-07-13T02:50:45;99193.34;;;16.13;76.67
64675;BME280;51090;51.512;11.332;2023-07-13T02:53:11;99196.03;;;16.13;76.25
64675;BME280;51090;51.512;11.332;2023-07-13T02:55:37;99202.22;;;16.14;75.94
64675;BME280;51090;51.512;11.332;2023-07-13T02:58:03;99206.16;;;16.11;76.19
64675;BME280;51090;51.512;11.332;2023-07-13T03:00:29;99202.66;;;16.10;75.92
64675;BME280;51090;51.512;11.332;2023-07-13T03:02:56;99203.69;;;16.09;75.90
64675;BME280;51090;51.512;11.332;2023-07-13T03:05:23;99205.78;;;16.07;75.90
64675;BME280;51090;51.512;11.332;2023-07-13T03:07:49;99222.88;;;16.06;75.75
64675;BME280;51090;51.512;11.332;2023-07-13T03:10:15;99215.06;;;16.05;76.55
64675;BME280;51090;51.512;11.332;2023-07-13T03:12:42;99218.34;;;16.07;76.65
64675;BME280;51090;51.512;11.332;2023-07-13T03:15:08;99220.34;;;16.11;76.81
64675;BME280;51090;51.512;11.332;2023-07-13T03:17:34;99218.16;;;16.20;77.02
64675;BME280;51090;51.512;11.332;2023-07-13T03:20:00;99222.16;;;16.29;77.60
64675;BME280;51090;51.512;11.332;2023-07-13T03:22:26;99226.97;;;16.39;79.20
64675;BME280;51090;51.512;11.332;2023-07-13T03:24:54;99230.34;;;16.46;77.19
64675;BME280;51090;51.512;11.332;2023-07-13T03:27:20;99235.63;;;16.53;76.33
64675;BME280;51090;51.512;11.332;2023-07-13T03:29:46;99233.28;;;16.57;76.57
64675;BME280;51090;51.512;11.332;2023-07-13T03:32:12;99234.00;;;16.52;76.77
64675;BME280;51090;51.512;11.332;2023-07-13T03:34:38;99234.94;;;16.58;76.52
64675;BME280;51090;51.512;11.332;2023-07-13T03:37:04;99237.75;;;16.63;77.32
64675;BME280;51090;51.512;11.332;2023-07-13T03:39:30;99246.19;;;16.78;76.79
64675;BME280;51090;51.512;11.332;2023-07-13T03:41:56;99240.50;;;16.86;76.71
64675;BME280;51090;51.512;11.332;2023-07-13T03:44:22;99249.25;;;16.93;76.28
64675;BME280;51090;51.512;11.332;2023-07-13T03:46:48;99254.13;;;16.96;76.59
64675;BME280;51090;51.512;11.332;2023-07-13T03:49:14;99246.44;;;17.00;76.68
64675;BME280;51090;51.512;11.332;2023-07-13T03:51:40;99242.84;;;17.06;76.36
64675;BME280;51090;51.512;11.332;2023-07-13T03:54:07;99248.78;;;17.08;76.72
64675;BME280;51090;51.512;11.332;2023-07-13T03:56:33;99253.56;;;17.06;76.14
64675;BME280;51090;51.512;11.332;2023-07-13T03:58:59;99255.41;;;17.06;76.15
64675;BME280;51090;51.512;11.332;2023-07-13T04:01:26;99252.25;;;16.97;77.18
64675;BME280;51090;51.512;11.332;2023-07-13T04:03:52;99249.81;;;16.84;78.48
64675;BME280;51090;51.512;11.332;2023-07-13T04:06:21;99242.53;;;16.72;81.72
64675;BME280;51090;51.512;11.332;2023-07-13T04:08:53;99255.06;;;16.60;86.56
64675;BME280;51090;51.512;11.332;2023-07-13T04:11:21;99257.63;;;16.55;81.73
64675;BME280;51090;51.512;11.332;2023-07-13T04:13:48;99267.19;;;16.63;81.37
64675;BME280;51090;51.512;11.332;2023-07-13T04:16:15;99270.13;;;16.73;80.76
64675;BME280;51090;51.512;11.332;2023-07-13T04:18:42;99259.72;;;16.83;80.43
64675;BME280;51090;51.512;11.332;2023-07-13T04:21:08;99263.09;;;16.90;79.63
64675;BME280;51090;51.512;11.332;2023-07-13T04:23:36;99259.59;;;16.90;79.98
64675;BME280;51090;51.512;11.332;2023-07-13T04:26:02;99262.63;;;16.93;79.69
64675;BME280;51090;51.512;11.332;2023-07-13T04:28:28;99260.78;;;16.94;80.00
64675;BME280;51090;51.512;11.332;2023-07-13T04:30:55;99266.47;;;16.97;80.00
64675;BME280;51090;51.512;11.332;2023-07-13T04:33:21;99274.88;;;17.01;79.93
64675;BME280;51090;51.512;11.332;2023-07-13T04:35:52;99269.88;;;17.05;80.41
64675;BME280;51090;51.512;11.332;2023-07-13T04:38:20;99271.38;;;17.12;80.92
64675;BME280;51090;51.512;11.332;2023-07-13T04:40:46;99263.81;;;17.09;81.30
64675;BME280;51090;51.512;11.332;2023-07-13T04:43:13;99268.94;;;17.11;80.57
64675;BME280;51090;51.512;11.332;2023-07-13T04:45:39;99265.81;;;17.14;80.41
64675;BME280;51090;51.512;11.332;2023-07-13T04:48:05;99258.22;;;17.11;87.20
64675;BME280;51090;51.512;11.332;2023-07-13T04:50:31;99259.84;;;17.12;84.41
64675;BME280;51090;51.512;11.332;2023-07-13T04:52:57;99257.78;;;17.14;85.15
64675;BME280;51090;51.512;11.332;2023-07-13T04:55:25;99260.19;;;17.15;84.04
64675;BME280;51090;51.512;11.332;2023-07-13T04:57:51;99251.00;;;17.23;82.88
64675;BME280;51090;51.512;11.332;2023-07-13T05:00:17;99258.81;;;17.36;82.72
64675;BME280;51090;51.512;11.332;2023-07-13T05:02:44;99249.59;;;17.44;83.28
64675;BME280;51090;51.512;11.332;2023-07-13T05:05:14;99253.78;;;17.52;83.04
64675;BME280;51090;51.512;11.332;2023-07-13T05:07:40;99251.22;;;17.57;81.53
64675;BME280;51090;51.512;11.332;2023-07-13T05:10:06;99257.53;;;17.62;81.64
64675;BME280;51090;51.512;11.332;2023-07-13T05:12:33;99262.16;;;17.67;82.18
64675;BME280;51090;51.512;11.332;2023-07-13T05:14:59;99263.00;;;17.68;84.39
64675;BME280;51090;51.512;11.332;2023-07-13T05:17:25;99260.75;;;17.76;83.83
64675;BME280;51090;51.512;11.332;2023-07-13T05:19:51;99261.59;;;17.89;83.05
64675;BME280;51090;51.512;11.332;2023-07-13T05:22:17;99264.09;;;18.07;82.71
64675;BME280;51090;51.512;11.332;2023-07-13T05:24:43;99268.16;;;18.21;82.50
64675;BME280;51090;51.512;11.332;2023-07-13T05:27:09;99273.22;;;18.35;82.73
64675;BME280;51090;51.512;11.332;2023-07-13T05:29:35;99274.47;;;18.44;84.23
64675;BME280;51090;51.512;11.332;2023-07-13T05:32:01;99268.78;;;18.57;82.96
64675;BME280;51090;51.512;11.332;2023-07-13T05:34:27;99265.56;;;18.72;81.47
64675;BME280;51090;51.512;11.332;2023-07-13T05:36:53;99267.25;;;18.90;80.78
64675;BME280;51090;51.512;11.332;2023-07-13T05:39:19;99278.00;;;19.07;79.98
64675;BME280;51090;51.512;11.332;2023-07-13T05:41:45;99286.72;;;19.31;78.53
64675;BME280;51090;51.512;11.332;2023-07-13T05:44:11;99283.81;;;19.54;77.24
64675;BME280;51090;51.512;11.332;2023-07-13T05:46:37;99285.22;;;19.74;76.07
64675;BME280;51090;51.512;11.332;2023-07-13T05:49:04;99290.31;;;19.92;75.00
64675;BME280;51090;51.512;11.332;2023-07-13T05:51:30;99279.72;;;20.08;73.93
64675;BME280;51090;51.512;11.332;2023-07-13T05:53:56;99294.50;;;20.27;72.67
64675;BME280;51090;51.512;11.332;2023-07-13T05:56:21;99288.25;;;20.49;71.56
64675;BME280;51090;51.512;11.332;2023-07-13T05:58:48;99287.78;;;20.79;70.85
64675;BME280;51090;51.512;11.332;2023-07-13T06:01:15;99298.31;;;21.13;68.39
64675;BME280;51090;51.512;11.332;2023-07-13T06:03:41;99297.66;;;21.33;67.53
64675;BME280;51090;51.512;11.332;2023-07-13T06:06:09;99300.81;;;21.57;66.29
64675;BME280;51090;51.512;11.332;2023-07-13T06:08:36;99305.28;;;21.83;65.71
64675;BME280;51090;51.512;11.332;2023-07-13T06:11:18;99307.28;;;22.03;63.45
64675;BME280;51090;51.512;11.332;2023-07-13T06:13:45;99302.19;;;22.07;63.34
64675;BME280;51090;51.512;11.332;2023-07-13T06:16:11;99299.47;;;22.07;63.30
64675;BME280;51090;51.512;11.332;2023-07-13T06:18:37;99299.19;;;22.08;63.06
64675;BME280;51090;51.512;11.332;2023-07-13T06:21:12;99299.75;;;22.10;62.21
64675;BME280;51090;51.512;11.332;2023-07-13T06:23:39;99295.47;;;22.14;62.39
64675;BME280;51090;51.512;11.332;2023-07-13T06:26:05;99300.38;;;22.23;61.93
64675;BME280;51090;51.512;11.332;2023-07-13T06:28:32;99307.97;;;22.31;61.49
64675;BME280;51090;51.512;11.332;2023-07-13T06:30:59;99300.69;;;22.36;60.67
64675;BME280;51090;51.512;11.332;2023-07-13T06:33:25;99308.00;;;22.41;60.20
64675;BME280;51090;51.512;11.332;2023-07-13T06:35:51;99304.19;;;22.37;59.76
64675;BME280;51090;51.512;11.332;2023-07-13T06:38:17;99305.28;;;22.36;59.50
64675;BME280;51090;51.512;11.332;2023-07-13T06:40:42;99302.56;;;22.31;59.02
64675;BME280;51090;51.512;11.332;2023-07-13T06:43:08;99302.53;;;22.26;58.93
64675;BME280;51090;51.512;11.332;2023-07-13T06:45:44;99299.56;;;22.22;58.63
64675;BME280;51090;51.512;11.332;2023-07-13T06:48:13;99296.59;;;22.24;59.04
64675;BME280;51090;51.512;11.332;2023-07-13T06:50:39;99304.72;;;22.29;58.79
64675;BME280;51090;51.512;11.332;2023-07-13T06:53:05;99307.97;;;22.31;58.64
64675;BME280;51090;51.512;11.332;2023-07-13T06:55:30;99303.63;;;22.35;58.27
64675;BME280;51090;51.512;11.332;2023-07-13T06:57:57;99302.78;;;22.19;57.41
64675;BME280;51090;51.512;11.332;2023-07-13T07:00:23;99299.28;;;22.24;57.98
64675;BME280;51090;51.512;11.332;2023-07-13T07:02:48;99302.00;;;22.24;57.21
64675;BME280;51090;51.512;11.332;2023-07-13T07:05:14;99305.25;;;22.26;56.92
64675;BME280;51090;51.512;11.332;2023-07-13T07:07:40;99313.09;;;22.27;55.64
64675;BME280;51090;51.512;11.332;2023-07-13T07:10:06;99317.91;;;22.20;54.95
64675;BME280;51090;51.512;11.332;2023-07-13T07:12:32;99307.81;;;22.00;53.95
64675;BME280;51090;51.512;11.332;2023-07-13T07:14:58;99311.06;;;22.02;54.66
64675;BME280;51090;51.512;11.332;2023-07-13T07:17:23;99318.41;;;22.12;54.64
64675;BME280;51090;51.512;11.332;2023-07-13T07:19:50;99307.28;;;22.03;53.45
64675;BME280;51090;51.512;11.332;2023-07-13T07:22:16;99317.88;;;22.15;54.38
64675;BME280;51090;51.512;11.332;2023-07-13T07:24:42;99315.78;;;22.27;54.31
64675;BME280;51090;51.512;11.332;2023-07-13T07:27:07;99329.31;;;22.37;53.79
64675;BME280;51090;51.512;11.332;2023-07-13T07:29:33;99314.41;;;22.30;52.91
64675;BME280;51090;51.512;11.332;2023-07-13T07:31:59;99318.47;;;22.32;51.82
64675;BME280;51090;51.512;11.332;2023-07-13T07:34:25;99323.06;;;22.27;53.06
64675;BME280;51090;51.512;11.332;2023-07-13T07:36:53;99322.47;;;22.14;52.33
64675;BME280;51090;51.512;11.332;2023-07-13T07:39:19;99315.94;;;22.05;53.74
64675;BME280;51090;51.512;11.332;2023-07-13T07:41:45;99326.31;;;21.76;53.75
64675;BME280;51090;51.512;11.332;2023-07-13T07:44:10;99320.00;;;21.60;54.08
64675;BME280;51090;51.512;11.332;2023-07-13T07:46:36;99318.44;;;21.69;54.42
64675;BME280;51090;51.512;11.332;2023-07-13T07:49:02;99320.75;;;21.98;53.69
64675;BME280;51090;51.512;11.332;2023-07-13T07:51:28;99334.13;;;22.20;53.54
64675;BME280;51090;51.512;11.332;2023-07-13T07:53:53;99338.56;;;22.52;53.62
64675;BME280;51090;51.512;11.332;2023-07-13T07:56:19;99336.47;;;22.79;53.26
64675;BME280;51090;51.512;11.332;2023-07-13T07:58:45;99327.53;;;22.74;51.00
64675;BME280;51090;51.512;11.332;2023-07-13T08:01:10;99332.63;;;22.60;50.67
64675;BME280;51090;51.512;11.332;2023-07-13T08:03:36;99330.44;;;22.52;51.58
64675;BME280;51090;51.512;11.332;2023-07-13T08:06:02;99337.97;;;22.45;52.05
64675;BME280;51090;51.512;11.332;2023-07-13T08:08:28;99342.31;;;22.41;51.48
64675;BME280;51090;51.512;11.332;2023-07-13T08:10:53;99342.53;;;22.29;51.62
64675;BME280;51090;51.512;11.332;2023-07-13T08:13:19;99332.00;;;22.37;52.47
64675;BME280;51090;51.512;11.332;2023-07-13T08:15:46;99342.84;;;22.43;51.06
64675;BME280;51090;51.512;11.332;2023-07-13T08:18:12;99342.56;;;22.39;51.25
64675;BME280;51090;51.512;11.332;2023-07-13T08:20:39;99334.06;;;22.15;50.31
64675;BME280;51090;51.512;11.332;2023-07-13T08:23:06;99336.09;;;22.45;51.50
64675;BME280;51090;51.512;11.332;2023-07-13T08:25:32;99343.72;;;22.58;50.90
64675;BME280;51090;51.512;11.332;2023-07-13T08:27:57;99341.31;;;22.72;51.06
64675;BME280;51090;51.512;11.332;2023-07-13T08:30:23;99337.59;;;22.99;50.98
64675;BME280;51090;51.512;11.332;2023-07-13T08:32:49;99342.44;;;22.92;49.61
64675;BME280;51090;51.512;11.332;2023-07-13T08:35:15;99348.69;;;23.02;50.04
64675;BME280;51090;51.512;11.332;2023-07-13T08:37:41;99345.72;;;23.24;49.74
64675;BME280;51090;51.512;11.332;2023-07-13T08:40:10;99350.06;;;23.31;49.21
64675;BME280;51090;51.512;11.332;2023-07-13T08:42:39;99350.88;;;23.36;49.59
64675;BME280;51090;51.512;11.332;2023-07-13T08:45:43;99359.25;;;23.24;48.04
64675;BME280;51090;51.512;11.332;2023-07-13T08:48:19;99350.06;;;23.20;48.36
64675;BME280;51090;51.512;11.332;2023-07-13T08:51:21;99344.09;;;23.39;48.07
64675;BME280;51090;51.512;11.332;2023-07-13T08:53:54;99346.25;;;23.42;47.96
64675;BME280;51090;51.512;11.332;2023-07-13T08:56:25;99356.81;;;23.64;47.63
64675;BME280;51090;51.512;11.332;2023-07-13T08:59:05;99341.91;;;23.61;46.49
64675;BME280;51090;51.512;11.332;2023-07-13T09:04:20;99325.97;;;23.39;46.84
64675;BME280;51090;51.512;11.332;2023-07-13T09:09:47;99354.63;;;23.61;45.17
64675;BME280;51090;51.512;11.332;2023-07-13T09:12:38;99350.25;;;24.01;45.79
64675;BME280;51090;51.512;11.332;2023-07-13T09:15:31;99364.31;;;24.08;42.68
64675;BME280;51090;51.512;11.332;2023-07-13T09:18:44;99340.00;;;23.93;44.38
64675;BME280;51090;51.512;11.332;2023-07-13T09:23:28;99346.47;;;23.71;44.34
64675;BME280;51090;51.512;11.332;2023-07-13T09:26:29;99338.91;;;23.68;44.08
64675;BME280;51090;51.512;11.332;2023-07-13T09:29:11;99344.88;;;23.70;44.04
64675;BME280;51090;51.512;11.332;2023-07-13T09:31:43;99330.78;;;23.68;43.11
64675;BME280;51090;51.512;11.332;2023-07-13T09:34:13;99342.19;;;23.80;41.89
64675;BME280;51090;51.512;11.332;2023-07-13T09:36:39;99343.47;;;24.03;41.20
64675;BME280;51090;51.512;11.332;2023-07-13T09:41:50;99357.00;;;24.73;40.08
64675;BME280;51090;51.512;11.332;2023-07-13T09:44:34;99331.72;;;24.83;39.64
64675;BME280;51090;51.512;11.332;2023-07-13T09:47:01;99349.47;;;24.65;38.59
64675;BME280;51090;51.512;11.332;2023-07-13T09:49:35;99363.56;;;24.67;40.76
64675;BME280;51090;51.512;11.332;2023-07-13T09:52:10;99359.69;;;24.78;38.33
64675;BME280;51090;51.512;11.332;2023-07-13T09:54:37;99378.63;;;24.84;38.60
64675;BME280;51090;51.512;11.332;2023-07-13T09:57:12;99355.53;;;24.91;38.14
64675;BME280;51090;51.512;11.332;2023-07-13T09:59:45;99356.38;;;25.31;39.25
64675;BME280;51090;51.512;11.332;2023-07-13T10:02:34;99358.81;;;25.91;37.58
64675;BME280;51090;51.512;11.332;2023-07-13T10:05:04;99357.88;;;26.25;39.23
64675;BME280;51090;51.512;11.332;2023-07-13T10:07:32;99349.41;;;26.50;39.52
64675;BME280;51090;51.512;11.332;2023-07-13T10:10:01;99348.78;;;26.59;35.87
64675;BME280;51090;51.512;11.332;2023-07-13T10:12:29;99356.59;;;26.65;35.72
64675;BME280;51090;51.512;11.332;2023-07-13T10:14:58;99369.38;;;26.84;38.62
64675;BME280;51090;51.512;11.332;2023-07-13T10:17:29;99368.56;;;26.83;35.50
64675;BME280;51090;51.512;11.332;2023-07-13T10:19:59;99371.66;;;26.58;35.17
64675;BME280;51090;51.512;11.332;2023-07-13T10:22:59;99372.09;;;26.65;34.54
64675;BME280;51090;51.512;11.332;2023-07-13T10:25:31;99371.38;;;26.78;35.79
64675;BME280;51090;51.512;11.332;2023-07-13T10:28:31;99358.63;;;26.55;34.95
64675;BME280;51090;51.512;11.332;2023-07-13T10:31:00;99376.16;;;26.67;37.27
64675;BME280;51090;51.512;11.332;2023-07-13T10:33:27;99370.41;;;26.88;36.47
64675;BME280;51090;51.512;11.332;2023-07-13T10:36:13;99366.06;;;27.06;35.89
64675;BME280;51090;51.512;11.332;2023-07-13T10:38:40;99364.44;;;27.05;35.47
64675;BME280;51090;51.512;11.332;2023-07-13T10:41:12;99353.34;;;27.01;36.30
64675;BME280;51090;51.512;11.332;2023-07-13T10:43:47;99361.88;;;26.94;34.67
64675;BME280;51090;51.512;11.332;2023-07-13T10:46:19;99375.47;;;26.94;35.42
64675;BME280;51090;51.512;11.332;2023-07-13T10:48:51;99382.59;;;26.53;34.05
64675;BME280;51090;51.512;11.332;2023-07-13T10:51:18;99380.78;;;26.43;36.00
64675;BME280;51090;51.512;11.332;2023-07-13T10:53:47;99380.50;;;26.44;36.22
64675;BME280;51090;51.512;11.332;2023-07-13T10:56:28;99369.31;;;26.70;34.85
64675;BME280;51090;51.512;11.332;2023-07-13T10:59:17;99377.59;;;27.17;35.21
64675;BME280;51090;51.512;11.332;2023-07-13T11:01:58;99369.94;;;27.38;34.06
64675;BME280;51090;51.512;11.332;2023-07-13T11:04:27;99380.88;;;27.19;33.60
64675;BME280;51090;51.512;11.332;2023-07-13T11:07:00;99378.19;;;27.13;34.57
64675;BME280;51090;51.512;11.332;2023-07-13T11:09:40;99384.13;;;27.21;36.03
64675;BME280;51090;51.512;11.332;2023-07-13T11:12:50;99392.00;;;27.55;35.19
64675;BME280;51090;51.512;11.332;2023-07-13T11:15:44;99409.22;;;27.50;34.34
64675;BME280;51090;51.512;11.332;2023-07-13T11:18:22;99404.56;;;27.18;34.20
64675;BME280;51090;51.512;11.332;2023-07-13T11:20:49;99386.88;;;26.97;35.44
64675;BME280;51090;51.512;11.332;2023-07-13T11:25:44;99364.88;;;26.74;36.41
64675;BME280;51090;51.512;11.332;2023-07-13T11:36:17;99375.97;;;27.67;32.92
64675;BME280;51090;51.512;11.332;2023-07-13T11:41:51;99384.16;;;27.34;34.20
64675;BME280;51090;51.512;11.332;2023-07-13T11:44:23;99376.63;;;27.45;34.51
64675;BME280;51090;51.512;11.332;2023-07-13T11:46:55;99363.50;;;27.33;34.72
64675;BME280;51090;51.512;11.332;2023-07-13T11:49:25;99370.63;;;26.91;34.07
64675;BME280;51090;51.512;11.332;2023-07-13T11:51:52;99353.59;;;26.67;34.28
64675;BME280;51090;51.512;11.332;2023-07-13T11:54:31;99366.34;;;27.04;35.60
64675;BME280;51090;51.512;11.332;2023-07-13T11:57:29;99352.81;;;27.37;34.19
64675;BME280;51090;51.512;11.332;2023-07-13T11:59:59;99369.69;;;27.53;33.34
64675;BME280;51090;51.512;11.332;2023-07-13T12:02:36;99372.13;;;27.68;34.56
64675;BME280;51090;51.512;11.332;2023-07-13T12:05:04;99365.97;;;27.95;35.39
64675;BME280;51090;51.512;11.332;2023-07-13T12:07:33;99371.19;;;27.92;32.56
64675;BME280;51090;51.512;11.332;2023-07-13T12:10:25;99378.28;;;27.93;32.45
64675;BME280;51090;51.512;11.332;2023-07-13T12:12:58;99380.56;;;27.20;32.22
64675;BME280;51090;51.512;11.332;2023-07-13T12:15:45;99355.63;;;27.13;33.77
64675;BME280;51090;51.512;11.332;2023-07-13T12:18:19;99378.50;;;26.93;33.13
64675;BME280;51090;51.512;11.332;2023-07-13T12:20:46;99371.56;;;26.82;33.92
64675;BME280;51090;51.512;11.332;2023-07-13T12:23:34;99375.56;;;26.70;34.71
64675;BME280;51090;51.512;11.332;2023-07-13T12:26:06;99366.38;;;26.85;34.85
64675;BME280;51090;51.512;11.332;2023-07-13T12:31:43;99366.13;;;26.82;33.35
64675;BME280;51090;51.512;11.332;2023-07-13T12:34:15;99368.78;;;26.87;33.39
64675;BME280;51090;51.512;11.332;2023-07-13T12:36:53;99381.19;;;26.74;33.46
64675;BME280;51090;51.512;11.332;2023-07-13T12:39:35;99381.50;;;26.73;33.85
64675;BME280;51090;51.512;11.332;2023-07-13T12:44:49;99378.66;;;26.83;35.17
64675;BME280;51090;51.512;11.332;2023-07-13T12:47:15;99371.72;;;26.71;34.18
64675;BME280;51090;51.512;11.332;2023-07-13T12:49:49;99365.91;;;26.97;34.06
64675;BME280;51090;51.512;11.332;2023-07-13T12:52:36;99377.59;;;27.35;33.57
64675;BME280;51090;51.512;11.332;2023-07-13T12:55:14;99359.47;;;27.77;34.16
64675;BME280;51090;51.512;11.332;2023-07-13T12:57:53;99385.75;;;28.01;33.36
64675;BME280;51090;51.512;11.332;2023-07-13T13:00:31;99373.44;;;28.04;33.78
64675;BME280;51090;51.512;11.332;2023-07-13T13:03:19;99380.59;;;28.27;32.04
64675;BME280;51090;51.512;11.332;2023-07-13T13:05:46;99368.38;;;28.25;33.17
64675;BME280;51090;51.512;11.332;2023-07-13T13:08:13;99370.97;;;28.43;34.17
64675;BME280;51090;51.512;11.332;2023-07-13T13:10:39;99385.47;;;28.44;32.40
64675;BME280;51090;51.512;11.332;2023-07-13T13:13:05;99379.38;;;28.19;32.96
64675;BME280;51090;51.512;11.332;2023-07-13T13:15:30;99380.28;;;28.01;33.49
64675;BME280;51090;51.512;11.332;2023-07-13T13:17:57;99369.16;;;27.97;32.99
64675;BME280;51090;51.512;11.332;2023-07-13T13:20:25;99369.72;;;28.13;34.32
64675;BME280;51090;51.512;11.332;2023-07-13T13:22:51;99381.69;;;28.12;33.97
64675;BME280;51090;51.512;11.332;2023-07-13T13:25:18;99383.44;;;28.08;33.27
64675;BME280;51090;51.512;11.332;2023-07-13T13:27:45;99400.72;;;28.45;33.95
64675;BME280;51090;51.512;11.332;2023-07-13T13:30:17;99404.31;;;28.68;32.89
64675;BME280;51090;51.512;11.332;2023-07-13T13:32:46;99399.09;;;28.58;32.48
64675;BME280;51090;51.512;11.332;2023-07-13T13:35:18;99392.91;;;28.38;30.79
64675;BME280;51090;51.512;11.332;2023-07-13T13:37:45;99413.72;;;28.76;33.00
64675;BME280;51090;51.512;11.332;2023-07-13T13:40:17;99410.81;;;28.95;32.59